Payne City, Georgia
Current Conditions -  °F | °C
As of 12:53 AM on Friday 31 Oct 2014 (Local Time) from KMCN Reporting Station
Clear Clear  
Wind Chill: 42°   Ceiling: Unl
Heat Index: 45°   Visibility: 10mi
Dew Point: 43°   Wind: 6mph
Humidity: 93%   Direction: 280°W
Pressure: 29.97"   Gusts: NA
Location:  32.85°N, 83.675°W
Report Text: KMCN 310453Z AUTO 28005KT 10SM CLR 07/06 A2997 RMK AO2 SLP145 T00720061 402220072 TSNO
Loading
Personal Weather Stations






























Interactive Weather Map
Tropical Storm Tracking
New forecast layout! Learn more

10-Day Weather Forecast

Advertisements
Track Severe Weather on mobile